createdAt,value
2023-04-09T00:01:29.065Z,-0.83
2023-04-09T00:03:56.672Z,-0.83
2023-04-09T00:06:23.931Z,-0.86
2023-04-09T00:08:51.408Z,-0.88
2023-04-09T00:11:18.928Z,-0.87
2023-04-09T00:13:46.294Z,-0.83
2023-04-09T00:16:13.328Z,-0.86
2023-04-09T00:18:41.575Z,-0.84
2023-04-09T00:21:08.985Z,-0.83
2023-04-09T00:23:36.562Z,-0.82
2023-04-09T00:26:03.959Z,-0.81
2023-04-09T00:28:31.351Z,-0.81
2023-04-09T00:30:58.830Z,-0.82
2023-04-09T00:33:26.544Z,-0.79
2023-04-09T00:35:53.849Z,-0.79
2023-04-09T00:38:21.398Z,-0.82
2023-04-09T00:40:50.070Z,-0.83
2023-04-09T00:43:17.873Z,-0.87
2023-04-09T00:45:45.570Z,-0.89
2023-04-09T00:48:13.713Z,-0.91
2023-04-09T00:50:41.759Z,-0.97
2023-04-09T00:53:09.232Z,-0.93
2023-04-09T00:55:36.910Z,-0.94
2023-04-09T00:58:04.321Z,-0.91
2023-04-09T01:00:32.073Z,-0.92
2023-04-09T01:02:59.242Z,-0.93
2023-04-09T01:06:10.341Z,-0.85
2023-04-09T01:08:58.569Z,-0.81
2023-04-09T01:11:49.345Z,-0.81
2023-04-09T01:14:54.115Z,-0.73
2023-04-09T01:17:46.864Z,-0.67
2023-04-09T01:20:37.364Z,-0.62
2023-04-09T01:23:10.463Z,-0.59
2023-04-09T01:25:59.254Z,-0.54
2023-04-09T01:28:45.261Z,-0.47
2023-04-09T01:31:18.659Z,-0.34
2023-04-09T01:33:46.132Z,-0.23
2023-04-09T01:36:13.553Z,-0.25
2023-04-09T01:38:42.624Z,-0.23
2023-04-09T01:41:23.706Z,-0.19
2023-04-09T01:43:51.043Z,-0.12
2023-04-09T01:46:18.930Z,-0.09
2023-04-09T01:48:46.517Z,-0.02
2023-04-09T01:51:14.009Z,0.04
2023-04-09T01:53:42.003Z,0.08
2023-04-09T01:56:09.419Z,0.05
2023-04-09T01:58:36.762Z,0.06
2023-04-09T02:01:09.462Z,0.12
2023-04-09T02:03:40.003Z,0.05
2023-04-09T02:06:23.965Z,0.04
2023-04-09T02:08:51.550Z,-0.05
2023-04-09T02:11:19.117Z,-0.08
2023-04-09T02:13:46.183Z,-0.10
2023-04-09T02:16:13.783Z,-0.04
2023-04-09T02:18:41.107Z,-0.03
2023-04-09T02:21:08.538Z,0.02
2023-04-09T02:23:35.970Z,0.10
2023-04-09T02:26:03.023Z,0.21
2023-04-09T02:28:30.897Z,0.14
2023-04-09T02:30:58.365Z,0.21
2023-04-09T02:33:25.829Z,0.35
2023-04-09T02:35:53.131Z,0.40
2023-04-09T02:38:20.919Z,0.44
2023-04-09T02:40:48.023Z,0.48
2023-04-09T02:43:15.594Z,0.58
2023-04-09T02:45:42.978Z,0.65
2023-04-09T02:48:10.359Z,0.76
2023-04-09T02:50:37.942Z,0.89
2023-04-09T02:53:05.336Z,0.94
2023-04-09T02:55:32.451Z,1.02
2023-04-09T02:57:59.592Z,1.07
2023-04-09T03:00:27.040Z,1.10
2023-04-09T03:02:55.641Z,1.13
2023-04-09T03:05:23.455Z,1.23
2023-04-09T03:07:50.801Z,1.35
2023-04-09T03:10:18.305Z,1.41
2023-04-09T03:12:47.911Z,1.47
2023-04-09T03:15:15.610Z,1.56
2023-04-09T03:17:42.938Z,1.58
2023-04-09T03:20:10.972Z,1.67
2023-04-09T03:26:58.219Z,1.96
2023-04-09T03:29:26.552Z,2.03
2023-04-09T03:31:53.930Z,2.09
2023-04-09T03:34:21.293Z,2.21
2023-04-09T03:36:53.029Z,2.22
2023-04-09T03:39:30.683Z,2.29
2023-04-09T03:41:59.026Z,2.35
2023-04-09T03:44:30.065Z,2.45
2023-04-09T03:47:10.140Z,2.51
2023-04-09T03:49:39.259Z,2.47
2023-04-09T03:52:17.897Z,2.43
2023-04-09T03:54:51.779Z,2.42
2023-04-09T03:57:23.069Z,2.42
2023-04-09T03:59:52.895Z,2.49
2023-04-09T04:02:22.922Z,2.62
2023-04-09T04:04:58.477Z,2.74
2023-04-09T04:07:30.430Z,2.68
2023-04-09T04:10:07.307Z,2.69
2023-04-09T04:12:34.401Z,2.65
2023-04-09T04:15:09.316Z,2.69
2023-04-09T04:17:47.738Z,2.71
2023-04-09T04:20:26.309Z,2.84
2023-04-09T04:23:01.872Z,2.89
2023-04-09T04:25:30.469Z,2.87
2023-04-09T04:27:58.108Z,2.85
2023-04-09T04:30:35.346Z,2.77
2023-04-09T04:33:06.406Z,2.62
2023-04-09T04:35:41.671Z,2.59
2023-04-09T04:38:16.441Z,2.56
2023-04-09T04:40:43.620Z,2.67
2023-04-09T04:43:11.051Z,2.82
2023-04-09T04:45:38.644Z,2.93
2023-04-09T04:48:10.590Z,3.07
2023-04-09T04:50:37.973Z,3.18
2023-04-09T04:53:08.372Z,3.39
2023-04-09T04:55:45.196Z,3.67
2023-04-09T04:58:15.157Z,3.82
2023-04-09T05:00:50.057Z,3.83
2023-04-09T05:03:17.785Z,3.86
2023-04-09T05:05:53.701Z,3.81
2023-04-09T05:08:22.592Z,3.84
2023-04-09T05:10:55.732Z,3.71
2023-04-09T05:13:26.455Z,3.71
2023-04-09T05:15:54.894Z,3.84
2023-04-09T05:18:22.007Z,3.91
2023-04-09T05:20:49.631Z,3.97
2023-04-09T05:23:18.199Z,3.90
2023-04-09T05:25:49.680Z,3.93
2023-04-09T05:28:25.556Z,4.02
2023-04-09T05:31:03.886Z,4.05
2023-04-09T05:33:37.746Z,4.14
2023-04-09T05:36:18.277Z,4.04
2023-04-09T05:38:48.465Z,4.05
2023-04-09T05:41:15.939Z,4.01
2023-04-09T05:44:00.487Z,3.97
2023-04-09T05:46:29.001Z,3.86
2023-04-09T05:48:56.810Z,3.83
2023-04-09T05:51:26.494Z,3.75
2023-04-09T05:53:55.610Z,3.70
2023-04-09T05:56:23.164Z,3.63
2023-04-09T05:58:54.096Z,3.72
2023-04-09T06:01:21.636Z,3.64
2023-04-09T06:03:50.405Z,3.70
2023-04-09T06:06:18.421Z,3.79
2023-04-09T06:08:45.825Z,3.88
2023-04-09T06:11:13.779Z,3.98
2023-04-09T06:13:41.188Z,4.09
2023-04-09T06:16:08.877Z,4.23
2023-04-09T06:18:36.876Z,4.46
2023-04-09T06:21:05.114Z,4.67
2023-04-09T06:23:33.301Z,4.93
2023-04-09T06:26:00.353Z,5.21
2023-04-09T06:28:28.727Z,5.41
2023-04-09T06:30:56.269Z,5.78
2023-04-09T06:33:24.247Z,6.05
2023-04-09T06:35:51.494Z,6.26
2023-04-09T06:38:18.585Z,6.25
2023-04-09T06:40:46.105Z,6.32
2023-04-09T06:43:13.292Z,6.28
2023-04-09T06:45:48.732Z,5.93
2023-04-09T06:48:16.553Z,5.63
2023-04-09T06:50:44.442Z,5.45
2023-04-09T06:53:11.626Z,5.11
2023-04-09T06:55:38.794Z,5.00
2023-04-09T06:58:06.592Z,4.99
2023-04-09T07:00:33.933Z,5.14
2023-04-09T07:03:01.406Z,5.39
2023-04-09T07:05:28.929Z,5.41
2023-04-09T07:07:56.164Z,5.65
2023-04-09T07:10:23.530Z,5.84
2023-04-09T07:12:50.876Z,6.09
2023-04-09T07:15:18.341Z,6.32
2023-04-09T07:17:45.751Z,6.41
2023-04-09T07:20:13.488Z,6.30
2023-04-09T07:22:41.297Z,6.08
2023-04-09T07:25:09.320Z,5.86
2023-04-09T07:27:36.539Z,5.69
2023-04-09T07:30:04.437Z,5.66
2023-04-09T07:32:31.827Z,5.48
2023-04-09T07:34:59.268Z,5.37
2023-04-09T07:37:27.164Z,5.25
2023-04-09T07:39:54.923Z,5.09
2023-04-09T07:42:22.266Z,5.00
2023-04-09T07:44:49.530Z,4.95
2023-04-09T07:47:16.676Z,4.76
2023-04-09T07:49:43.974Z,4.67
2023-04-09T07:52:11.673Z,4.70
2023-04-09T07:54:39.340Z,4.71
2023-04-09T07:57:06.716Z,4.64
2023-04-09T07:59:34.948Z,4.55
2023-04-09T08:02:02.206Z,4.45
2023-04-09T08:04:30.234Z,4.35
2023-04-09T08:06:57.386Z,4.28
2023-04-09T08:09:24.816Z,4.32
2023-04-09T08:11:51.855Z,4.42
2023-04-09T08:14:19.537Z,4.65
2023-04-09T08:16:47.303Z,4.75
2023-04-09T08:19:16.454Z,4.90
2023-04-09T08:21:44.132Z,5.09
2023-04-09T08:24:11.920Z,5.05
2023-04-09T08:26:40.251Z,5.22
2023-04-09T08:29:08.050Z,5.45
2023-04-09T08:31:36.579Z,5.37
2023-04-09T08:34:04.026Z,5.45
2023-04-09T08:36:32.264Z,5.64
2023-04-09T08:39:00.396Z,5.70
2023-04-09T08:41:31.498Z,5.66
2023-04-09T08:43:59.748Z,5.78
2023-04-09T08:46:27.490Z,5.85
2023-04-09T08:48:55.344Z,5.94
2023-04-09T08:51:24.011Z,5.88
2023-04-09T08:54:04.013Z,5.64
2023-04-09T08:56:31.687Z,5.51
2023-04-09T08:58:58.958Z,5.57
2023-04-09T09:01:29.960Z,5.73
2023-04-09T09:04:00.950Z,5.74
2023-04-09T09:06:33.018Z,5.78
2023-04-09T09:09:11.059Z,5.81
2023-04-09T09:11:40.960Z,5.97
2023-04-09T09:14:15.106Z,6.14
2023-04-09T09:16:44.564Z,6.21
2023-04-09T09:19:26.997Z,6.15
2023-04-09T09:21:58.450Z,6.08
2023-04-09T09:24:26.333Z,5.96
2023-04-09T09:26:57.503Z,5.88
2023-04-09T09:29:25.751Z,5.70
2023-04-09T09:31:54.338Z,5.62
2023-04-09T09:34:22.927Z,5.48
2023-04-09T09:36:50.336Z,5.35
2023-04-09T09:39:17.530Z,5.28
2023-04-09T09:41:45.759Z,5.32
2023-04-09T09:44:13.763Z,5.22
2023-04-09T09:46:42.284Z,5.14
2023-04-09T09:49:09.764Z,5.04
2023-04-09T09:51:39.599Z,4.97
2023-04-09T09:54:08.062Z,5.05
2023-04-09T09:56:36.047Z,5.05
2023-04-09T09:59:07.414Z,4.97
2023-04-09T10:01:37.869Z,4.79
2023-04-09T10:04:06.268Z,4.49
2023-04-09T10:06:38.572Z,4.24
2023-04-09T10:09:06.836Z,3.94
2023-04-09T10:11:34.588Z,3.67
2023-04-09T10:14:01.970Z,3.38
2023-04-09T10:16:29.529Z,3.13
2023-04-09T10:18:57.489Z,2.66
2023-04-09T10:21:43.840Z,2.23
2023-04-09T10:24:10.916Z,1.98
2023-04-09T10:26:40.794Z,1.57
2023-04-09T10:29:15.615Z,1.11
2023-04-09T10:32:10.296Z,0.52
2023-04-09T10:34:42.160Z,0.17
2023-04-09T10:37:15.766Z,0.10
2023-04-09T10:39:50.658Z,-0.07
2023-04-09T10:42:27.105Z,-0.34
2023-04-09T10:45:10.308Z,-0.76
2023-04-09T10:47:38.169Z,-1.06
2023-04-09T10:50:30.584Z,-1.31
2023-04-09T10:53:00.032Z,-1.51
2023-04-09T10:55:36.282Z,-1.68
2023-04-09T11:03:09.509Z,-1.69
2023-04-09T11:05:40.361Z,-1.68
2023-04-09T11:08:11.972Z,-1.66
2023-04-09T11:10:41.341Z,-1.61
2023-04-09T11:13:13.117Z,-1.47
2023-04-09T11:15:40.901Z,-1.40
2023-04-09T11:18:11.849Z,-1.49
2023-04-09T11:20:38.941Z,-1.64
2023-04-09T11:23:06.450Z,-1.70
2023-04-09T11:25:35.217Z,-1.90
2023-04-09T11:28:03.984Z,-2.07
2023-04-09T11:30:30.932Z,-2.15
2023-04-09T11:32:58.676Z,-2.24
2023-04-09T11:35:25.967Z,-2.29
2023-04-09T11:37:56.114Z,-2.31
2023-04-09T11:40:25.680Z,-2.35
2023-04-09T11:42:54.664Z,-2.39
2023-04-09T11:45:27.786Z,-2.47
2023-04-09T11:47:55.227Z,-2.55
2023-04-09T11:50:22.484Z,-2.57
2023-04-09T11:52:50.253Z,-2.60
2023-04-09T11:55:30.297Z,-2.63
2023-04-09T11:58:00.512Z,-2.65
2023-04-09T12:00:28.267Z,-2.66
2023-04-09T12:03:01.309Z,-2.66
2023-04-09T12:05:30.408Z,-2.63
2023-04-09T12:07:59.943Z,-2.63
2023-04-09T12:10:33.474Z,-2.66
2023-04-09T12:13:08.201Z,-2.67
2023-04-09T12:15:41.186Z,-2.67
2023-04-09T12:18:09.585Z,-2.66
2023-04-09T12:20:39.653Z,-2.67
2023-04-09T12:23:07.444Z,-2.72
2023-04-09T12:25:36.474Z,-2.74
2023-04-09T12:28:04.694Z,-2.83
2023-04-09T12:30:32.962Z,-2.86
2023-04-09T12:33:00.375Z,-2.90
2023-04-09T12:35:28.121Z,-2.92
2023-04-09T12:37:55.214Z,-2.91
2023-04-09T12:40:22.572Z,-2.92
2023-04-09T12:42:50.032Z,-2.90
2023-04-09T12:45:18.469Z,-2.88
2023-04-09T12:47:46.104Z,-2.89
2023-04-09T12:50:13.739Z,-2.92
2023-04-09T12:52:41.133Z,-2.91
2023-04-09T12:55:09.118Z,-2.96
2023-04-09T12:57:37.841Z,-2.96
2023-04-09T13:00:06.112Z,-2.90
2023-04-09T13:02:34.052Z,-2.87
2023-04-09T13:05:01.502Z,-2.88
2023-04-09T13:07:29.525Z,-2.93
2023-04-09T13:09:57.178Z,-2.97
2023-04-09T13:12:24.860Z,-3.01
2023-04-09T13:14:53.851Z,-2.99
2023-04-09T13:17:21.132Z,-2.96
2023-04-09T13:19:48.799Z,-2.93
2023-04-09T13:22:16.077Z,-2.93
2023-04-09T13:24:43.598Z,-2.92
2023-04-09T13:27:11.274Z,-2.93
2023-04-09T13:29:38.766Z,-2.88
2023-04-09T13:32:10.611Z,-2.84
2023-04-09T13:34:38.629Z,-2.81
2023-04-09T13:37:06.089Z,-2.80
2023-04-09T13:39:33.401Z,-2.78
2023-04-09T13:42:05.334Z,-2.78
2023-04-09T13:44:37.502Z,-2.75
2023-04-09T13:47:04.918Z,-2.74
2023-04-09T13:49:32.045Z,-2.78
2023-04-09T13:51:59.655Z,-2.79
2023-04-09T13:54:26.978Z,-2.80
2023-04-09T13:56:54.664Z,-2.80
2023-04-09T13:59:21.904Z,-2.80
2023-04-09T14:01:49.194Z,-2.82
2023-04-09T14:04:16.871Z,-2.85
2023-04-09T14:06:44.218Z,-2.82
2023-04-09T14:09:11.864Z,-2.79
2023-04-09T14:11:38.905Z,-2.79
2023-04-09T14:14:06.773Z,-2.80
2023-04-09T14:16:34.259Z,-2.79
2023-04-09T14:19:01.739Z,-2.79
2023-04-09T14:21:28.971Z,-2.81
2023-04-09T14:23:56.531Z,-2.84
2023-04-09T14:26:24.320Z,-2.86
2023-04-09T14:28:52.047Z,-2.81
2023-04-09T14:31:22.414Z,-2.81
2023-04-09T14:33:50.393Z,-2.82
2023-04-09T14:36:18.071Z,-2.80
2023-04-09T14:38:46.116Z,-2.76
2023-04-09T14:41:13.463Z,-2.72
2023-04-09T14:43:40.565Z,-2.74
2023-04-09T14:46:11.444Z,-2.76
2023-04-09T14:48:39.987Z,-2.81
2023-04-09T14:51:11.130Z,-2.81
2023-04-09T14:53:38.369Z,-2.87
2023-04-09T14:56:06.455Z,-2.91
2023-04-09T14:58:33.778Z,-2.98
2023-04-09T15:01:01.045Z,-3.02
2023-04-09T15:03:28.411Z,-3.06
2023-04-09T15:05:55.795Z,-3.09
2023-04-09T15:08:23.507Z,-3.14
2023-04-09T15:10:51.025Z,-3.19
2023-04-09T15:13:18.670Z,-3.24
2023-04-09T15:15:46.108Z,-3.33
2023-04-09T15:18:13.442Z,-3.39
2023-04-09T15:20:42.042Z,-3.46
2023-04-09T15:23:10.876Z,-3.49
2023-04-09T15:25:38.738Z,-3.61
2023-04-09T15:28:06.128Z,-3.65
2023-04-09T15:30:35.517Z,-3.68
2023-04-09T15:33:03.067Z,-3.79
2023-04-09T15:35:31.429Z,-3.87
2023-04-09T15:37:58.580Z,-3.95
2023-04-09T15:40:25.893Z,-3.98
2023-04-09T15:42:53.140Z,-4.04
2023-04-09T15:45:20.439Z,-4.06
2023-04-09T15:47:48.128Z,-4.05
2023-04-09T15:50:15.592Z,-4.05
2023-04-09T15:52:42.771Z,-4.10
2023-04-09T15:55:11.010Z,-4.08
2023-04-09T15:57:39.153Z,-4.05
2023-04-09T16:00:10.774Z,-4.03
2023-04-09T16:02:38.992Z,-4.00
2023-04-09T16:05:09.344Z,-4.02
2023-04-09T16:07:36.729Z,-4.04
2023-04-09T16:10:04.840Z,-4.05
2023-04-09T16:12:32.762Z,-4.05
2023-04-09T16:15:00.388Z,-4.10
2023-04-09T16:17:27.612Z,-4.13
2023-04-09T16:19:55.137Z,-4.17
2023-04-09T16:22:22.485Z,-4.20
2023-04-09T16:24:49.666Z,-4.26
2023-04-09T16:27:16.826Z,-4.32
2023-04-09T16:29:44.344Z,-4.36
2023-04-09T16:32:11.733Z,-4.40
2023-04-09T16:34:38.713Z,-4.42
2023-04-09T16:37:06.207Z,-4.47
2023-04-09T16:39:33.658Z,-4.54
2023-04-09T16:42:01.553Z,-4.56
2023-04-09T16:44:29.081Z,-4.61
2023-04-09T16:46:56.302Z,-4.65
2023-04-09T16:49:23.613Z,-4.66
2023-04-09T16:51:53.019Z,-4.69
2023-04-09T16:54:20.849Z,-4.69
2023-04-09T16:56:48.851Z,-4.74
2023-04-09T16:59:18.155Z,-4.77
2023-04-09T17:01:45.582Z,-4.82
2023-04-09T17:04:12.842Z,-4.83
2023-04-09T17:06:40.347Z,-4.78
2023-04-09T17:09:07.687Z,-4.76
2023-04-09T17:11:35.587Z,-4.76
2023-04-09T17:14:02.950Z,-4.73
2023-04-09T17:16:30.576Z,-4.68
2023-04-09T17:18:57.765Z,-4.69
2023-04-09T17:21:26.176Z,-4.65
2023-04-09T17:23:53.521Z,-4.65
2023-04-09T17:26:20.776Z,-4.61
2023-04-09T17:28:48.146Z,-4.59
2023-04-09T17:31:16.093Z,-4.58
2023-04-09T17:33:47.708Z,-4.59
2023-04-09T17:36:17.333Z,-4.58
2023-04-09T17:38:45.132Z,-4.59
2023-04-09T17:41:12.694Z,-4.57
2023-04-09T17:43:39.995Z,-4.58
2023-04-09T17:46:10.005Z,-4.58
2023-04-09T17:48:37.062Z,-4.55
2023-04-09T17:51:06.177Z,-4.50
2023-04-09T17:53:33.760Z,-4.48
2023-04-09T17:56:03.613Z,-4.38
2023-04-09T17:58:31.252Z,-4.34
2023-04-09T18:00:59.620Z,-4.38
2023-04-09T18:03:26.964Z,-4.43
2023-04-09T18:05:54.630Z,-4.43
2023-04-09T18:08:22.174Z,-4.41
2023-04-09T18:11:04.940Z,-4.45
2023-04-09T18:13:36.354Z,-4.52
2023-04-09T18:16:03.862Z,-4.55
2023-04-09T18:18:31.222Z,-4.58
2023-04-09T18:20:58.867Z,-4.60
2023-04-09T18:23:26.765Z,-4.62
2023-04-09T18:25:54.141Z,-4.62
2023-04-09T18:28:21.980Z,-4.67
2023-04-09T18:30:49.389Z,-4.76
2023-04-09T18:33:16.638Z,-4.74
2023-04-09T18:35:44.017Z,-4.65
2023-04-09T18:38:11.096Z,-4.61
2023-04-09T18:40:42.873Z,-4.54
2023-04-09T18:43:11.305Z,-4.48
2023-04-09T18:45:41.609Z,-4.39
2023-04-09T18:48:09.111Z,-4.31
2023-04-09T18:50:36.816Z,-4.29
2023-04-09T18:53:05.318Z,-4.25
2023-04-09T18:55:32.634Z,-4.15
2023-04-09T18:58:00.261Z,-4.10
2023-04-09T19:00:27.600Z,-4.08
2023-04-09T19:02:55.100Z,-4.09
2023-04-09T19:05:22.529Z,-4.10
2023-04-09T19:07:49.617Z,-4.09
2023-04-09T19:10:16.965Z,-4.09
2023-04-09T19:12:50.666Z,-4.11
2023-04-09T19:15:18.020Z,-4.10
2023-04-09T19:17:45.242Z,-4.05
2023-04-09T19:20:13.662Z,-4.01
2023-04-09T19:22:41.125Z,-3.97
2023-04-09T19:25:09.834Z,-3.96
2023-04-09T19:27:38.345Z,-3.92
2023-04-09T19:30:06.380Z,-3.92
2023-04-09T19:32:33.961Z,-3.91
2023-04-09T19:35:01.909Z,-3.88
2023-04-09T19:37:30.458Z,-3.87
2023-04-09T19:39:58.558Z,-3.83
2023-04-09T19:42:28.679Z,-3.81
2023-04-09T19:44:56.064Z,-3.82
2023-04-09T19:47:23.113Z,-3.86
2023-04-09T19:49:50.980Z,-3.85
2023-04-09T19:52:18.031Z,-3.96
2023-04-09T19:54:46.166Z,-4.02
2023-04-09T19:57:15.082Z,-4.10
2023-04-09T19:59:42.240Z,-4.22
2023-04-09T20:02:09.292Z,-4.27
2023-04-09T20:04:36.755Z,-4.35
2023-04-09T20:07:04.061Z,-4.42
2023-04-09T20:09:32.308Z,-4.48
2023-04-09T20:12:04.144Z,-4.50
2023-04-09T20:14:31.518Z,-4.49
2023-04-09T20:16:59.280Z,-4.54
2023-04-09T20:19:27.139Z,-4.58
2023-04-09T20:21:54.764Z,-4.68
2023-04-09T20:24:22.864Z,-4.75
2023-04-09T20:26:50.999Z,-4.76
2023-04-09T20:29:18.972Z,-4.84
2023-04-09T20:31:46.314Z,-4.91
2023-04-09T20:34:13.770Z,-4.94
2023-04-09T20:36:43.417Z,-4.93
2023-04-09T20:39:11.394Z,-4.97
2023-04-09T20:41:38.727Z,-5.04
2023-04-09T20:44:06.702Z,-5.13
2023-04-09T20:46:34.394Z,-5.18
2023-04-09T20:49:03.519Z,-5.26
2023-04-09T20:51:30.546Z,-5.29
2023-04-09T20:53:59.409Z,-5.34
2023-04-09T20:56:26.565Z,-5.34
2023-04-09T20:58:57.293Z,-5.38
2023-04-09T21:01:27.097Z,-5.42
2023-04-09T21:03:54.677Z,-5.47
2023-04-09T21:06:22.192Z,-5.43
2023-04-09T21:08:49.753Z,-5.48
2023-04-09T21:11:16.911Z,-5.51
2023-04-09T21:13:53.728Z,-5.59
2023-04-09T21:16:22.744Z,-5.60
2023-04-09T21:18:50.629Z,-5.60
2023-04-09T21:21:18.553Z,-5.66
2023-04-09T21:23:46.191Z,-5.72
2023-04-09T21:26:14.997Z,-5.75
2023-04-09T21:28:43.023Z,-5.79
2023-04-09T21:31:11.324Z,-5.83
2023-04-09T21:33:41.410Z,-5.82
2023-04-09T21:36:08.980Z,-5.84
2023-04-09T21:38:36.465Z,-5.85
2023-04-09T21:41:03.784Z,-5.84
2023-04-09T21:43:31.096Z,-5.89
2023-04-09T21:45:58.690Z,-5.88
2023-04-09T21:48:30.283Z,-5.87
2023-04-09T21:51:01.164Z,-5.91
2023-04-09T21:53:31.177Z,-5.95
2023-04-09T21:55:58.453Z,-5.96
2023-04-09T21:58:25.728Z,-5.95
2023-04-09T22:00:52.961Z,-6.00
2023-04-09T22:03:21.798Z,-5.98
2023-04-09T22:05:49.340Z,-5.96
2023-04-09T22:08:16.581Z,-5.97
2023-04-09T22:10:43.905Z,-5.90
2023-04-09T22:13:11.018Z,-5.85
2023-04-09T22:15:38.566Z,-5.83
2023-04-09T22:18:05.886Z,-5.82
2023-04-09T22:20:33.496Z,-5.81
2023-04-09T22:23:00.563Z,-5.82
2023-04-09T22:25:34.798Z,-5.78
2023-04-09T22:28:02.099Z,-5.82
2023-04-09T22:30:29.919Z,-5.81
2023-04-09T22:32:57.487Z,-5.84
2023-04-09T22:35:24.834Z,-5.86
2023-04-09T22:37:52.808Z,-5.86
2023-04-09T22:40:20.051Z,-5.85
2023-04-09T22:42:47.956Z,-5.90
2023-04-09T22:45:15.710Z,-5.92
2023-04-09T22:47:43.200Z,-5.94
2023-04-09T22:50:11.322Z,-5.91
2023-04-09T22:52:38.421Z,-5.95
2023-04-09T22:55:06.296Z,-5.98
2023-04-09T22:57:33.892Z,-6.01
2023-04-09T23:00:01.409Z,-6.01
2023-04-09T23:02:29.286Z,-5.99
2023-04-09T23:04:56.666Z,-5.97
2023-04-09T23:07:23.793Z,-6.01
2023-04-09T23:09:54.873Z,-5.94
2023-04-09T23:12:22.235Z,-5.92
2023-04-09T23:14:49.497Z,-5.92
2023-04-09T23:17:17.223Z,-5.89
2023-04-09T23:19:45.201Z,-5.88
2023-04-09T23:22:12.470Z,-5.83
2023-04-09T23:24:39.636Z,-5.76
2023-04-09T23:27:06.735Z,-5.73
2023-04-09T23:29:34.540Z,-5.73
2023-04-09T23:32:02.665Z,-5.73
2023-04-09T23:34:30.526Z,-5.64
2023-04-09T23:36:57.941Z,-5.51
2023-04-09T23:39:25.303Z,-5.34
2023-04-09T23:41:52.522Z,-5.15
2023-04-09T23:44:19.934Z,-4.97
2023-04-09T23:46:47.515Z,-4.87
2023-04-09T23:49:15.908Z,-4.75
2023-04-09T23:51:43.185Z,-4.73
2023-04-09T23:54:10.263Z,-4.48
2023-04-09T23:56:37.383Z,-3.98
2023-04-09T23:59:04.667Z,-3.54
